sensor_id;sensor_type;location;lat;lon;timestamp;pressure;altitude;pressure_sealevel;temperature;humidity
26859;BME280;14429;48.346;16.338;2023-07-24T00:01:04;99242.53;;;28.16;44.39
26859;BME280;14429;48.346;16.338;2023-07-24T00:03:29;99232.03;;;28.66;43.08
26859;BME280;14429;48.346;16.338;2023-07-24T00:05:57;99238.47;;;28.89;42.21
26859;BME280;14429;48.346;16.338;2023-07-24T00:08:24;99236.41;;;27.65;46.57
26859;BME280;14429;48.346;16.338;2023-07-24T00:10:49;99239.19;;;27.90;46.71
26859;BME280;14429;48.346;16.338;2023-07-24T00:13:15;99227.72;;;26.77;49.50
26859;BME280;14429;48.346;16.338;2023-07-24T00:15:40;99242.94;;;27.95;44.82
26859;BME280;14429;48.346;16.338;2023-07-24T00:18:06;99232.13;;;26.22;52.02
26859;BME280;14429;48.346;16.338;2023-07-24T00:20:31;99232.31;;;26.21;50.85
26859;BME280;14429;48.346;16.338;2023-07-24T00:22:56;99228.63;;;27.38;46.02
26859;BME280;14429;48.346;16.338;2023-07-24T00:25:23;99226.63;;;27.76;45.47
26859;BME280;14429;48.346;16.338;2023-07-24T00:27:49;99224.28;;;28.21;43.97
26859;BME280;14429;48.346;16.338;2023-07-24T00:30:14;99211.91;;;28.54;43.47
26859;BME280;14429;48.346;16.338;2023-07-24T00:32:40;99221.38;;;28.34;43.67
26859;BME280;14429;48.346;16.338;2023-07-24T00:35:06;99210.75;;;28.79;42.64
26859;BME280;14429;48.346;16.338;2023-07-24T00:37:32;99225.81;;;28.88;42.52
26859;BME280;14429;48.346;16.338;2023-07-24T00:39:57;99233.53;;;26.93;49.03
26859;BME280;14429;48.346;16.338;2023-07-24T00:42:24;99217.69;;;27.87;44.83
26859;BME280;14429;48.346;16.338;2023-07-24T00:44:49;99222.53;;;28.26;43.71
26859;BME280;14429;48.346;16.338;2023-07-24T00:47:15;99209.66;;;28.80;42.64
26859;BME280;14429;48.346;16.338;2023-07-24T00:49:41;99214.53;;;28.78;42.76
26859;BME280;14429;48.346;16.338;2023-07-24T00:52:07;99208.47;;;28.58;43.41
26859;BME280;14429;48.346;16.338;2023-07-24T00:54:34;99215.88;;;29.04;42.04
26859;BME280;14429;48.346;16.338;2023-07-24T00:57:00;99214.41;;;29.20;41.73
26859;BME280;14429;48.346;16.338;2023-07-24T00:59:27;99204.63;;;28.59;43.73
26859;BME280;14429;48.346;16.338;2023-07-24T01:01:53;99203.97;;;29.10;41.81
26859;BME280;14429;48.346;16.338;2023-07-24T01:04:18;99207.94;;;29.26;41.03
26859;BME280;14429;48.346;16.338;2023-07-24T01:06:44;99215.06;;;28.86;43.34
26859;BME280;14429;48.346;16.338;2023-07-24T01:09:09;99203.81;;;28.23;44.94
26859;BME280;14429;48.346;16.338;2023-07-24T01:11:37;99204.75;;;28.82;42.64
26859;BME280;14429;48.346;16.338;2023-07-24T01:14:08;99217.84;;;29.15;41.34
26859;BME280;14429;48.346;16.338;2023-07-24T01:16:37;99211.41;;;29.21;41.19
26859;BME280;14429;48.346;16.338;2023-07-24T01:19:12;99212.63;;;29.25;41.54
26859;BME280;14429;48.346;16.338;2023-07-24T01:21:45;99206.72;;;29.10;41.60
26859;BME280;14429;48.346;16.338;2023-07-24T01:24:24;99206.50;;;28.94;41.73
26859;BME280;14429;48.346;16.338;2023-07-24T01:26:56;99209.50;;;29.22;41.45
26859;BME280;14429;48.346;16.338;2023-07-24T01:29:21;99207.66;;;28.87;42.10
26859;BME280;14429;48.346;16.338;2023-07-24T01:31:47;99205.63;;;29.11;41.38
26859;BME280;14429;48.346;16.338;2023-07-24T01:34:12;99203.28;;;29.26;41.03
26859;BME280;14429;48.346;16.338;2023-07-24T01:36:38;99201.03;;;29.34;40.72
26859;BME280;14429;48.346;16.338;2023-07-24T01:39:03;99198.03;;;28.96;42.04
26859;BME280;14429;48.346;16.338;2023-07-24T01:41:29;99199.94;;;29.24;41.49
26859;BME280;14429;48.346;16.338;2023-07-24T01:43:58;99200.00;;;29.47;41.02
26859;BME280;14429;48.346;16.338;2023-07-24T01:46:24;99196.28;;;29.52;40.39
26859;BME280;14429;48.346;16.338;2023-07-24T01:48:49;99194.78;;;29.56;40.35
26859;BME280;14429;48.346;16.338;2023-07-24T01:51:15;99195.97;;;29.60;40.70
26859;BME280;14429;48.346;16.338;2023-07-24T01:53:40;99180.91;;;29.63;40.41
26859;BME280;14429;48.346;16.338;2023-07-24T01:56:06;99183.78;;;29.56;40.20
26859;BME280;14429;48.346;16.338;2023-07-24T01:58:31;99178.75;;;29.53;40.72
26859;BME280;14429;48.346;16.338;2023-07-24T02:00:58;99175.31;;;29.58;40.26
26859;BME280;14429;48.346;16.338;2023-07-24T02:03:23;99181.16;;;29.61;40.05
26859;BME280;14429;48.346;16.338;2023-07-24T02:05:49;99179.72;;;29.59;40.32
26859;BME280;14429;48.346;16.338;2023-07-24T02:08:14;99180.41;;;29.54;40.20
26859;BME280;14429;48.346;16.338;2023-07-24T02:10:40;99173.44;;;29.41;40.62
26859;BME280;14429;48.346;16.338;2023-07-24T02:13:05;99171.78;;;29.40;41.04
26859;BME280;14429;48.346;16.338;2023-07-24T02:15:31;99167.47;;;29.44;40.79
26859;BME280;14429;48.346;16.338;2023-07-24T02:17:57;99156.00;;;29.47;40.58
26859;BME280;14429;48.346;16.338;2023-07-24T02:20:23;99150.16;;;29.54;40.52
26859;BME280;14429;48.346;16.338;2023-07-24T02:22:48;99141.28;;;29.52;40.13
26859;BME280;14429;48.346;16.338;2023-07-24T02:25:14;99157.56;;;29.43;40.34
26859;BME280;14429;48.346;16.338;2023-07-24T02:27:39;99153.69;;;29.21;40.90
26859;BME280;14429;48.346;16.338;2023-07-24T02:30:06;99151.41;;;29.18;40.94
26859;BME280;14429;48.346;16.338;2023-07-24T02:32:31;99159.97;;;27.75;45.54
26859;BME280;14429;48.346;16.338;2023-07-24T02:34:58;99157.50;;;28.62;42.40
26859;BME280;14429;48.346;16.338;2023-07-24T02:37:23;99153.31;;;28.89;42.02
26859;BME280;14429;48.346;16.338;2023-07-24T02:39:49;99158.97;;;28.47;42.93
26859;BME280;14429;48.346;16.338;2023-07-24T02:42:14;99159.78;;;28.65;42.52
26859;BME280;14429;48.346;16.338;2023-07-24T02:44:40;99156.53;;;28.86;41.81
26859;BME280;14429;48.346;16.338;2023-07-24T02:47:05;99153.59;;;28.98;41.31
26859;BME280;14429;48.346;16.338;2023-07-24T02:49:31;99159.72;;;29.00;41.35
26859;BME280;14429;48.346;16.338;2023-07-24T02:51:58;99164.28;;;29.06;41.61
26859;BME280;14429;48.346;16.338;2023-07-24T02:54:25;99151.31;;;29.25;40.81
26859;BME280;14429;48.346;16.338;2023-07-24T02:56:50;99155.97;;;29.24;40.84
26859;BME280;14429;48.346;16.338;2023-07-24T02:59:15;99141.63;;;29.33;41.03
26859;BME280;14429;48.346;16.338;2023-07-24T03:01:41;99147.88;;;29.40;40.78
26859;BME280;14429;48.346;16.338;2023-07-24T03:04:06;99147.16;;;29.45;40.33
26859;BME280;14429;48.346;16.338;2023-07-24T03:06:32;99142.47;;;29.45;40.23
26859;BME280;14429;48.346;16.338;2023-07-24T03:08:58;99147.16;;;29.45;40.67
26859;BME280;14429;48.346;16.338;2023-07-24T03:11:24;99139.50;;;29.47;40.17
26859;BME280;14429;48.346;16.338;2023-07-24T03:13:49;99142.94;;;28.26;43.18
26859;BME280;14429;48.346;16.338;2023-07-24T03:16:15;99142.41;;;28.36;43.01
26859;BME280;14429;48.346;16.338;2023-07-24T03:18:40;99137.38;;;28.68;41.88
26859;BME280;14429;48.346;16.338;2023-07-24T03:21:05;99151.53;;;28.83;41.56
26859;BME280;14429;48.346;16.338;2023-07-24T03:23:31;99137.72;;;29.00;41.28
26859;BME280;14429;48.346;16.338;2023-07-24T03:25:58;99143.03;;;29.13;41.23
26859;BME280;14429;48.346;16.338;2023-07-24T03:28:23;99139.56;;;29.06;41.06
26859;BME280;14429;48.346;16.338;2023-07-24T03:30:48;99138.19;;;28.98;41.57
26859;BME280;14429;48.346;16.338;2023-07-24T03:33:14;99143.44;;;28.70;42.20
26859;BME280;14429;48.346;16.338;2023-07-24T03:35:39;99125.88;;;28.71;41.71
26859;BME280;14429;48.346;16.338;2023-07-24T03:38:05;99138.19;;;28.98;41.38
26859;BME280;14429;48.346;16.338;2023-07-24T03:40:30;99129.03;;;29.15;40.96
26859;BME280;14429;48.346;16.338;2023-07-24T03:42:57;99133.81;;;28.79;41.21
26859;BME280;14429;48.346;16.338;2023-07-24T03:45:22;99138.19;;;28.98;41.26
26859;BME280;14429;48.346;16.338;2023-07-24T03:47:48;99136.81;;;29.06;41.35
26859;BME280;14429;48.346;16.338;2023-07-24T03:50:13;99132.41;;;29.17;41.21
26859;BME280;14429;48.346;16.338;2023-07-24T03:52:39;99139.31;;;29.19;40.87
26859;BME280;14429;48.346;16.338;2023-07-24T03:55:05;99134.31;;;29.16;40.76
26859;BME280;14429;48.346;16.338;2023-07-24T03:57:31;99126.78;;;29.23;40.59
26859;BME280;14429;48.346;16.338;2023-07-24T03:59:57;99141.16;;;29.25;40.88
26859;BME280;14429;48.346;16.338;2023-07-24T04:02:23;99131.81;;;29.26;40.27
26859;BME280;14429;48.346;16.338;2023-07-24T04:04:48;99132.28;;;29.23;40.75
26859;BME280;14429;48.346;16.338;2023-07-24T04:07:14;99128.84;;;29.27;40.63
26859;BME280;14429;48.346;16.338;2023-07-24T04:09:39;99128.59;;;29.18;40.84
26859;BME280;14429;48.346;16.338;2023-07-24T04:12:05;99138.69;;;28.30;42.70
26859;BME280;14429;48.346;16.338;2023-07-24T04:14:30;99134.44;;;28.92;41.42
26859;BME280;14429;48.346;16.338;2023-07-24T04:16:57;99133.16;;;28.95;41.49
26859;BME280;14429;48.346;16.338;2023-07-24T04:19:23;99128.88;;;28.98;41.10
26859;BME280;14429;48.346;16.338;2023-07-24T04:21:48;99130.59;;;29.11;40.89
26859;BME280;14429;48.346;16.338;2023-07-24T04:24:13;99126.19;;;29.21;40.70
26859;BME280;14429;48.346;16.338;2023-07-24T04:26:39;99124.66;;;29.25;40.43
26859;BME280;14429;48.346;16.338;2023-07-24T04:29:04;99132.78;;;29.20;41.01
26859;BME280;14429;48.346;16.338;2023-07-24T04:31:30;99128.44;;;29.01;41.29
26859;BME280;14429;48.346;16.338;2023-07-24T04:33:56;99138.38;;;29.14;41.00
26859;BME280;14429;48.346;16.338;2023-07-24T04:36:22;99132.88;;;29.14;40.80
26859;BME280;14429;48.346;16.338;2023-07-24T04:38:47;99128.69;;;29.11;40.99
26859;BME280;14429;48.346;16.338;2023-07-24T04:41:13;99132.97;;;29.07;41.00
26859;BME280;14429;48.346;16.338;2023-07-24T04:43:38;99136.16;;;28.64;42.81
26859;BME280;14429;48.346;16.338;2023-07-24T04:46:03;99134.19;;;28.53;42.67
26859;BME280;14429;48.346;16.338;2023-07-24T04:48:29;99137.94;;;28.23;42.98
26859;BME280;14429;48.346;16.338;2023-07-24T04:50:56;99140.56;;;28.65;41.76
26859;BME280;14429;48.346;16.338;2023-07-24T04:53:21;99138.75;;;28.88;41.55
26859;BME280;14429;48.346;16.338;2023-07-24T04:55:47;99140.19;;;28.91;41.32
26859;BME280;14429;48.346;16.338;2023-07-24T04:58:13;99132.69;;;28.04;44.18
26859;BME280;14429;48.346;16.338;2023-07-24T05:00:38;99121.16;;;28.78;42.00
26859;BME280;14429;48.346;16.338;2023-07-24T05:03:03;99129.31;;;28.96;41.19
26859;BME280;14429;48.346;16.338;2023-07-24T05:05:29;99122.38;;;29.22;40.71
26859;BME280;14429;48.346;16.338;2023-07-24T05:07:56;99125.84;;;29.29;40.97
26859;BME280;14429;48.346;16.338;2023-07-24T05:10:21;99123.72;;;29.31;41.49
26859;BME280;14429;48.346;16.338;2023-07-24T05:12:46;99127.06;;;29.44;40.33
26859;BME280;14429;48.346;16.338;2023-07-24T05:15:12;99120.84;;;29.49;40.13
26859;BME280;14429;48.346;16.338;2023-07-24T05:17:37;99120.00;;;29.48;42.90
26859;BME280;14429;48.346;16.338;2023-07-24T05:20:03;99117.50;;;29.47;40.24
26859;BME280;14429;48.346;16.338;2023-07-24T05:22:29;99126.22;;;29.44;40.54
26859;BME280;14429;48.346;16.338;2023-07-24T05:24:55;99133.03;;;29.30;43.89
26859;BME280;14429;48.346;16.338;2023-07-24T05:27:21;99133.09;;;29.01;44.79
26859;BME280;14429;48.346;16.338;2023-07-24T05:29:46;99134.09;;;29.29;41.23
26859;BME280;14429;48.346;16.338;2023-07-24T05:32:12;99129.25;;;29.53;40.38
26859;BME280;14429;48.346;16.338;2023-07-24T05:34:37;99132.84;;;29.65;39.95
26859;BME280;14429;48.346;16.338;2023-07-24T05:37:03;99136.44;;;29.77;39.75
26859;BME280;14429;48.346;16.338;2023-07-24T05:39:30;99135.50;;;29.83;39.23
26859;BME280;14429;48.346;16.338;2023-07-24T05:41:57;99135.59;;;29.88;39.18
26859;BME280;14429;48.346;16.338;2023-07-24T05:44:22;99132.22;;;29.86;41.03
26859;BME280;14429;48.346;16.338;2023-07-24T05:46:47;99127.78;;;29.40;43.33
26859;BME280;14429;48.346;16.338;2023-07-24T05:49:13;99127.84;;;29.11;43.31
26859;BME280;14429;48.346;16.338;2023-07-24T05:51:38;99125.84;;;29.18;43.30
26859;BME280;14429;48.346;16.338;2023-07-24T05:54:04;99131.44;;;29.23;41.10
26859;BME280;14429;48.346;16.338;2023-07-24T05:56:29;99129.34;;;29.47;42.70
26859;BME280;14429;48.346;16.338;2023-07-24T05:58:56;99128.16;;;29.54;43.24
26859;BME280;14429;48.346;16.338;2023-07-24T06:01:21;99124.72;;;29.70;39.69
26859;BME280;14429;48.346;16.338;2023-07-24T06:03:47;99117.56;;;29.69;40.26
26859;BME280;14429;48.346;16.338;2023-07-24T06:06:12;99124.34;;;29.78;39.84
26859;BME280;14429;48.346;16.338;2023-07-24T06:08:37;99118.97;;;29.83;39.69
26859;BME280;14429;48.346;16.338;2023-07-24T06:11:03;99109.81;;;30.05;41.78
26859;BME280;14429;48.346;16.338;2023-07-24T06:13:28;99110.94;;;30.15;39.06
26859;BME280;14429;48.346;16.338;2023-07-24T06:15:55;99118.41;;;30.31;39.84
26859;BME280;14429;48.346;16.338;2023-07-24T06:18:20;99110.13;;;30.42;39.13
26859;BME280;14429;48.346;16.338;2023-07-24T06:20:47;99100.44;;;30.40;42.26
26859;BME280;14429;48.346;16.338;2023-07-24T06:23:12;99104.97;;;30.46;41.23
26859;BME280;14429;48.346;16.338;2023-07-24T06:25:37;99098.97;;;30.49;38.52
26859;BME280;14429;48.346;16.338;2023-07-24T06:28:03;99100.50;;;30.56;38.27
26859;BME280;14429;48.346;16.338;2023-07-24T06:30:29;99091.94;;;30.80;39.53
26859;BME280;14429;48.346;16.338;2023-07-24T06:32:55;99081.19;;;30.95;39.83
26859;BME280;14429;48.346;16.338;2023-07-24T06:35:21;99078.13;;;31.40;38.96
26859;BME280;14429;48.346;16.338;2023-07-24T06:37:46;99081.53;;;31.31;38.86
26859;BME280;14429;48.346;16.338;2023-07-24T06:40:12;99060.25;;;31.26;36.93
26859;BME280;14429;48.346;16.338;2023-07-24T06:42:37;99070.09;;;31.39;37.76
26859;BME280;14429;48.346;16.338;2023-07-24T06:45:04;99073.53;;;31.62;38.58
26859;BME280;14429;48.346;16.338;2023-07-24T06:47:29;99069.19;;;31.33;37.48
26859;BME280;14429;48.346;16.338;2023-07-24T06:49:56;99068.75;;;31.73;38.15
26859;BME280;14429;48.346;16.338;2023-07-24T06:52:21;99066.94;;;31.30;38.54
26859;BME280;14429;48.346;16.338;2023-07-24T06:54:47;99064.22;;;31.03;39.57
26859;BME280;14429;48.346;16.338;2023-07-24T06:57:12;99059.34;;;30.77;39.84
26859;BME280;14429;48.346;16.338;2023-07-24T06:59:38;99057.34;;;30.34;40.70
26859;BME280;14429;48.346;16.338;2023-07-24T07:02:03;99053.06;;;29.88;42.01
26859;BME280;14429;48.346;16.338;2023-07-24T07:04:29;99049.63;;;30.08;42.22
26859;BME280;14429;48.346;16.338;2023-07-24T07:06:56;99048.53;;;30.32;41.66
26859;BME280;14429;48.346;16.338;2023-07-24T07:09:21;99035.06;;;30.47;38.66
26859;BME280;14429;48.346;16.338;2023-07-24T07:11:47;99025.13;;;30.73;40.39
26859;BME280;14429;48.346;16.338;2023-07-24T07:14:12;99014.44;;;30.93;39.51
26859;BME280;14429;48.346;16.338;2023-07-24T07:16:37;99015.44;;;31.19;40.06
26859;BME280;14429;48.346;16.338;2023-07-24T07:19:03;99013.38;;;31.64;39.96
26859;BME280;14429;48.346;16.338;2023-07-24T07:21:28;99022.13;;;31.40;37.38
26859;BME280;14429;48.346;16.338;2023-07-24T07:23:55;99016.63;;;31.61;37.22
26859;BME280;14429;48.346;16.338;2023-07-24T07:26:21;99025.81;;;31.29;37.45
26859;BME280;14429;48.346;16.338;2023-07-24T07:28:46;99008.84;;;31.58;40.88
26859;BME280;14429;48.346;16.338;2023-07-24T07:31:11;99005.06;;;31.80;40.27
26859;BME280;14429;48.346;16.338;2023-07-24T07:33:37;99001.84;;;31.67;37.47
26859;BME280;14429;48.346;16.338;2023-07-24T07:36:02;99002.34;;;31.64;38.59
26859;BME280;14429;48.346;16.338;2023-07-24T07:38:28;98995.06;;;31.58;38.08
26859;BME280;14429;48.346;16.338;2023-07-24T07:40:55;99003.84;;;31.18;38.80
26859;BME280;14429;48.346;16.338;2023-07-24T07:43:20;98995.88;;;31.05;41.03
26859;BME280;14429;48.346;16.338;2023-07-24T07:45:46;98985.78;;;30.78;41.21
26859;BME280;14429;48.346;16.338;2023-07-24T07:48:11;98981.84;;;30.90;43.08
26859;BME280;14429;48.346;16.338;2023-07-24T07:50:37;98975.59;;;30.78;44.45
26859;BME280;14429;48.346;16.338;2023-07-24T07:53:02;98975.13;;;30.54;44.53
26859;BME280;14429;48.346;16.338;2023-07-24T07:55:28;98973.56;;;30.30;42.31
26859;BME280;14429;48.346;16.338;2023-07-24T07:57:54;98971.91;;;30.29;45.81
26859;BME280;14429;48.346;16.338;2023-07-24T08:00:20;98970.66;;;30.20;42.22
26859;BME280;14429;48.346;16.338;2023-07-24T08:02:45;98968.63;;;29.77;46.75
26859;BME280;14429;48.346;16.338;2023-07-24T08:05:11;98967.94;;;29.98;43.62
26859;BME280;14429;48.346;16.338;2023-07-24T08:07:36;98973.66;;;30.08;46.78
26859;BME280;14429;48.346;16.338;2023-07-24T08:10:03;98963.44;;;29.92;46.25
26859;BME280;14429;48.346;16.338;2023-07-24T08:12:28;98961.59;;;29.97;45.30
26859;BME280;14429;48.346;16.338;2023-07-24T08:14:55;98951.84;;;29.79;48.15
26859;BME280;14429;48.346;16.338;2023-07-24T08:17:21;98956.97;;;29.86;45.61
26859;BME280;14429;48.346;16.338;2023-07-24T08:19:46;98950.84;;;29.96;46.87
26859;BME280;14429;48.346;16.338;2023-07-24T08:22:11;98955.25;;;29.97;46.26
26859;BME280;14429;48.346;16.338;2023-07-24T08:24:37;98948.66;;;29.98;47.41
26859;BME280;14429;48.346;16.338;2023-07-24T08:27:03;98943.72;;;29.83;48.85
26859;BME280;14429;48.346;16.338;2023-07-24T08:29:28;98945.03;;;29.81;44.57
26859;BME280;14429;48.346;16.338;2023-07-24T08:31:55;98955.56;;;29.84;42.80
26859;BME280;14429;48.346;16.338;2023-07-24T08:34:21;98949.66;;;29.92;42.64
26859;BME280;14429;48.346;16.338;2023-07-24T08:36:46;98962.44;;;29.98;41.35
26859;BME280;14429;48.346;16.338;2023-07-24T08:39:11;98956.94;;;29.98;41.81
26859;BME280;14429;48.346;16.338;2023-07-24T08:41:37;98962.13;;;29.94;41.31
26859;BME280;14429;48.346;16.338;2023-07-24T08:44:03;98961.38;;;29.99;41.97
26859;BME280;14429;48.346;16.338;2023-07-24T08:46:30;98966.53;;;29.95;48.94
26859;BME280;14429;48.346;16.338;2023-07-24T08:48:58;98978.81;;;30.04;45.88
26859;BME280;14429;48.346;16.338;2023-07-24T08:51:24;98965.72;;;30.22;46.41
26859;BME280;14429;48.346;16.338;2023-07-24T08:53:50;98961.78;;;30.18;45.21
26859;BME280;14429;48.346;16.338;2023-07-24T08:56:16;98954.50;;;30.12;45.84
26859;BME280;14429;48.346;16.338;2023-07-24T08:58:41;98954.91;;;30.32;45.72
26859;BME280;14429;48.346;16.338;2023-07-24T09:01:08;98949.13;;;30.34;45.04
26859;BME280;14429;48.346;16.338;2023-07-24T09:03:33;98939.06;;;30.39;46.31
26859;BME280;14429;48.346;16.338;2023-07-24T09:06:00;98932.63;;;30.34;41.60
26859;BME280;14429;48.346;16.338;2023-07-24T09:08:29;98940.03;;;30.33;41.03
26859;BME280;14429;48.346;16.338;2023-07-24T09:10:55;98935.16;;;30.24;41.14
26859;BME280;14429;48.346;16.338;2023-07-24T09:13:20;98939.63;;;30.41;46.45
26859;BME280;14429;48.346;16.338;2023-07-24T09:15:46;98941.00;;;30.55;45.69
26859;BME280;14429;48.346;16.338;2023-07-24T09:18:11;98931.63;;;30.56;46.02
26859;BME280;14429;48.346;16.338;2023-07-24T09:20:38;98923.19;;;30.46;40.73
26859;BME280;14429;48.346;16.338;2023-07-24T09:23:05;98928.53;;;30.36;40.63
26859;BME280;14429;48.346;16.338;2023-07-24T09:25:31;98914.84;;;30.41;42.85
26859;BME280;14429;48.346;16.338;2023-07-24T09:27:57;98914.06;;;30.73;44.11
26859;BME280;14429;48.346;16.338;2023-07-24T09:30:23;98901.88;;;30.69;43.61
26859;BME280;14429;48.346;16.338;2023-07-24T09:32:52;98898.31;;;30.41;40.33
26859;BME280;14429;48.346;16.338;2023-07-24T09:35:18;98895.00;;;30.55;42.99
26859;BME280;14429;48.346;16.338;2023-07-24T09:37:44;98892.50;;;30.86;42.58
26859;BME280;14429;48.346;16.338;2023-07-24T09:40:13;98889.81;;;30.59;40.48
26859;BME280;14429;48.346;16.338;2023-07-24T09:42:39;98881.66;;;30.63;43.25
26859;BME280;14429;48.346;16.338;2023-07-24T09:45:05;98882.50;;;30.64;40.08
26859;BME280;14429;48.346;16.338;2023-07-24T09:47:31;98890.94;;;30.74;42.52
26859;BME280;14429;48.346;16.338;2023-07-24T09:49:57;98879.16;;;30.78;41.09
26859;BME280;14429;48.346;16.338;2023-07-24T09:52:24;98877.63;;;30.55;39.83
26859;BME280;14429;48.346;16.338;2023-07-24T09:54:55;98877.22;;;30.46;40.05
26859;BME280;14429;48.346;16.338;2023-07-24T09:57:26;98876.16;;;30.63;40.42
26859;BME280;14429;48.346;16.338;2023-07-24T09:59:54;98869.88;;;30.68;39.98
26859;BME280;14429;48.346;16.338;2023-07-24T10:02:21;98868.50;;;30.65;42.32
26859;BME280;14429;48.346;16.338;2023-07-24T10:04:47;98862.94;;;30.82;42.29
26859;BME280;14429;48.346;16.338;2023-07-24T10:07:14;98854.25;;;30.90;42.34
26859;BME280;14429;48.346;16.338;2023-07-24T10:09:40;98843.81;;;30.75;39.78
26859;BME280;14429;48.346;16.338;2023-07-24T10:12:07;98843.47;;;31.09;41.64
26859;BME280;14429;48.346;16.338;2023-07-24T10:14:35;98834.28;;;30.99;40.16
26859;BME280;14429;48.346;16.338;2023-07-24T10:17:01;98820.50;;;30.99;41.57
26859;BME280;14429;48.346;16.338;2023-07-24T10:19:35;98816.97;;;31.03;40.85
26859;BME280;14429;48.346;16.338;2023-07-24T10:22:01;98810.03;;;31.17;41.27
26859;BME280;14429;48.346;16.338;2023-07-24T10:24:28;98797.38;;;31.21;39.83
26859;BME280;14429;48.346;16.338;2023-07-24T10:26:54;98787.19;;;31.21;41.08
26859;BME280;14429;48.346;16.338;2023-07-24T10:29:20;98785.72;;;30.98;39.02
26859;BME280;14429;48.346;16.338;2023-07-24T10:31:53;98787.19;;;31.21;41.64
26859;BME280;14429;48.346;16.338;2023-07-24T10:34:19;98774.47;;;31.68;40.38
26859;BME280;14429;48.346;16.338;2023-07-24T10:36:44;98774.81;;;31.50;40.12
26859;BME280;14429;48.346;16.338;2023-07-24T10:39:14;98769.88;;;31.73;39.47
26859;BME280;14429;48.346;16.338;2023-07-24T10:41:39;98763.38;;;31.63;39.68
26859;BME280;14429;48.346;16.338;2023-07-24T10:44:05;98764.84;;;31.96;38.29
26859;BME280;14429;48.346;16.338;2023-07-24T10:46:35;98757.84;;;31.63;39.52
26859;BME280;14429;48.346;16.338;2023-07-24T10:49:03;98753.84;;;31.49;37.98
26859;BME280;14429;48.346;16.338;2023-07-24T10:51:29;98747.13;;;31.40;38.49
26859;BME280;14429;48.346;16.338;2023-07-24T10:53:55;98743.91;;;31.48;38.05
26859;BME280;14429;48.346;16.338;2023-07-24T10:56:20;98729.22;;;31.69;38.29
26859;BME280;14429;48.346;16.338;2023-07-24T10:58:46;98723.81;;;31.78;37.40
26859;BME280;14429;48.346;16.338;2023-07-24T11:01:11;98705.16;;;31.95;37.89
26859;BME280;14429;48.346;16.338;2023-07-24T11:03:37;98698.84;;;32.26;37.63
26859;BME280;14429;48.346;16.338;2023-07-24T11:06:04;98680.69;;;31.73;37.77
26859;BME280;14429;48.346;16.338;2023-07-24T11:08:30;98681.50;;;31.99;37.02
26859;BME280;14429;48.346;16.338;2023-07-24T11:10:56;98674.13;;;32.14;36.88
26859;BME280;14429;48.346;16.338;2023-07-24T11:13:23;98674.69;;;32.57;36.39
26859;BME280;14429;48.346;16.338;2023-07-24T11:15:50;98673.22;;;31.42;37.89
26859;BME280;14429;48.346;16.338;2023-07-24T11:18:16;98671.59;;;31.72;37.85
26859;BME280;14429;48.346;16.338;2023-07-24T11:20:44;98664.81;;;32.20;37.58
26859;BME280;14429;48.346;16.338;2023-07-24T11:23:12;98660.16;;;31.90;37.51
26859;BME280;14429;48.346;16.338;2023-07-24T11:25:37;98663.53;;;32.37;37.12
26859;BME280;14429;48.346;16.338;2023-07-24T11:28:04;98662.09;;;31.94;37.63
26859;BME280;14429;48.346;16.338;2023-07-24T11:30:30;98644.66;;;32.70;36.20
26859;BME280;14429;48.346;16.338;2023-07-24T11:32:56;98638.47;;;32.54;36.92
26859;BME280;14429;48.346;16.338;2023-07-24T11:35:22;98629.94;;;32.60;35.99
26859;BME280;14429;48.346;16.338;2023-07-24T11:37:48;98628.47;;;33.08;36.13
26859;BME280;14429;48.346;16.338;2023-07-24T11:40:15;98615.66;;;32.78;35.51
26859;BME280;14429;48.346;16.338;2023-07-24T11:42:42;98605.16;;;32.84;36.09
26859;BME280;14429;48.346;16.338;2023-07-24T11:45:08;98593.69;;;33.22;35.73
26859;BME280;14429;48.346;16.338;2023-07-24T11:47:41;98591.38;;;32.94;36.32
26859;BME280;14429;48.346;16.338;2023-07-24T11:50:08;98584.69;;;32.71;37.34
26859;BME280;14429;48.346;16.338;2023-07-24T11:52:41;98584.94;;;32.69;37.08
26859;BME280;14429;48.346;16.338;2023-07-24T11:55:08;98583.66;;;33.01;35.73
26859;BME280;14429;48.346;16.338;2023-07-24T11:57:35;98572.03;;;33.14;36.31
26859;BME280;14429;48.346;16.338;2023-07-24T12:00:00;98569.34;;;33.19;35.46
26859;BME280;14429;48.346;16.338;2023-07-24T12:02:26;98573.19;;;33.42;35.85
26859;BME280;14429;48.346;16.338;2023-07-24T12:04:58;98571.56;;;33.71;34.65
26859;BME280;14429;48.346;16.338;2023-07-24T12:07:32;98567.66;;;33.18;34.79
26859;BME280;14429;48.346;16.338;2023-07-24T12:09:57;98564.06;;;33.22;35.89
26859;BME280;14429;48.346;16.338;2023-07-24T12:12:23;98564.91;;;33.38;35.46
26859;BME280;14429;48.346;16.338;2023-07-24T12:14:49;98549.09;;;33.09;35.94
26859;BME280;14429;48.346;16.338;2023-07-24T12:17:17;98552.13;;;33.02;36.20
26859;BME280;14429;48.346;16.338;2023-07-24T12:19:43;98543.56;;;33.04;35.71
26859;BME280;14429;48.346;16.338;2023-07-24T12:22:08;98552.06;;;32.68;36.02
26859;BME280;14429;48.346;16.338;2023-07-24T12:24:34;98535.75;;;32.76;35.71
26859;BME280;14429;48.346;16.338;2023-07-24T12:26:59;98532.75;;;32.97;35.92
26859;BME280;14429;48.346;16.338;2023-07-24T12:29:24;98535.00;;;33.25;35.58
26859;BME280;14429;48.346;16.338;2023-07-24T12:31:51;98521.72;;;33.56;35.58
26859;BME280;14429;48.346;16.338;2023-07-24T12:34:16;98522.84;;;33.45;35.78
26859;BME280;14429;48.346;16.338;2023-07-24T12:36:42;98517.81;;;33.62;34.71
26859;BME280;14429;48.346;16.338;2023-07-24T12:39:07;98505.13;;;33.37;35.13
26859;BME280;14429;48.346;16.338;2023-07-24T12:41:33;98501.22;;;33.72;34.56
26859;BME280;14429;48.346;16.338;2023-07-24T12:43:58;98495.97;;;33.51;34.60